Lisbon, NY

8:07 PM EST on January 26, 2015 (GMT -0500)
Massena International-Richards | Change Station
CLOSE
Current Station
Airport
Location: Massena,
Elevation: 213 ft
Nearby Weather Stations

Elev 213 ft 44.94 °N, 74.85 °W | Updated 14 minutes ago

Partly Cloudy
Partly Cloudy
4 °F
Feels Like -15 °F
N
16
Wind Variable Wind from ENE

Today
High -- | Low -- °F
--% Chance of Precip.
Yesterday
High -- | Low -- °F
Precip. -- in
7:26 AM 5:01 PM
Waxing Crescent, 48% visible
Pressure 30.20 in
Visibility 10.0 miles
Clouds Mostly Cloudy 10000 ft
Windchill -15 °F
Dew Point -7 °F
Humidity 60%
Rainfall 0.00 in
Snow Depth Not available.
UV 0 out of 12
Pollen .10 out of 12
Air Quality Not available.
Flu Activity Not available.
METAR KMSS 270053Z AUTO 06014KT 10SM BKN100 M16/M22 A3016 RMK AO2 SLP227 T11561217

More Conditions Fewer Conditions

Pressure 30.20 in
Visibility 10.0 miles
Clouds Mostly Cloudy 10000 ft
Windchill -15 °F
Dew Point -7 °F
Humidity 60%
Rainfall 0.00 in
Snow Depth Not available.
UV 0 out of 12
Pollen .10 out of 12
Air Quality Not available.
Flu Activity Not available.
METAR KMSS 270053Z AUTO 06014KT 10SM BKN100 M16/M22 A3016 RMK AO2 SLP227 T11561217

More Conditions Fewer Conditions

10-Day Weather Forecast

Almanac

Astronomy

Jan. 26, 2015 Rise Set
Actual Time
Civil Twilight
Nautical Twilight
Astronomical Twilight
Moon
Length of Visible Light
Length of Day
Tomorrow will be .
, % of the Moon is Illuminated

Today's Extremes

State Highs State Lows

Community

WunderPhotos

Upload Photos

1,790,441 photos uploaded!

WunderBlogs® & News

Nearby

Air Quality

  Air Quality AQ Index Pollutant
Not available.

Snow Depth

Station Depth Elevation

Earthquake Activity

City Distance Mag. Time & Date
Minimum magnitude displayed is 2.5.

Coastal Water Temperatures

Place Temperature

Nearby Weather Stations